sensor_id;sensor_type;location;lat;lon;timestamp;temperature;humidity
65826;DHT22;52586;-43.152;172.732;2023-03-16T00:02:13;22.20;52.70
65826;DHT22;52586;-43.152;172.732;2023-03-16T00:04:44;22.30;52.90
65826;DHT22;52586;-43.152;172.732;2023-03-16T00:07:15;22.30;52.80
65826;DHT22;52586;-43.152;172.732;2023-03-16T00:09:46;22.30;52.70
65826;DHT22;52586;-43.152;172.732;2023-03-16T00:12:17;22.40;52.80
65826;DHT22;52586;-43.152;172.732;2023-03-16T00:14:51;22.40;52.80
65826;DHT22;52586;-43.152;172.732;2023-03-16T00:17:22;22.50;53.00
65826;DHT22;52586;-43.152;172.732;2023-03-16T00:19:54;22.50;52.90
65826;DHT22;52586;-43.152;172.732;2023-03-16T00:22:25;22.50;52.90
65826;DHT22;52586;-43.152;172.732;2023-03-16T00:24:57;22.60;52.90
65826;DHT22;52586;-43.152;172.732;2023-03-16T00:27:27;22.60;52.90
65826;DHT22;52586;-43.152;172.732;2023-03-16T00:30:00;22.70;52.90
65826;DHT22;52586;-43.152;172.732;2023-03-16T00:32:31;22.70;52.90
65826;DHT22;52586;-43.152;172.732;2023-03-16T00:35:03;22.70;52.80
65826;DHT22;52586;-43.152;172.732;2023-03-16T00:37:34;22.80;52.60
65826;DHT22;52586;-43.152;172.732;2023-03-16T00:40:06;22.80;52.40
65826;DHT22;52586;-43.152;172.732;2023-03-16T00:42:38;22.80;52.30
65826;DHT22;52586;-43.152;172.732;2023-03-16T00:45:11;22.90;52.20
65826;DHT22;52586;-43.152;172.732;2023-03-16T00:47:42;22.90;52.20
65826;DHT22;52586;-43.152;172.732;2023-03-16T00:50:12;22.90;52.10
65826;DHT22;52586;-43.152;172.732;2023-03-16T00:52:43;23.00;52.20
65826;DHT22;52586;-43.152;172.732;2023-03-16T00:55:14;23.00;52.10
65826;DHT22;52586;-43.152;172.732;2023-03-16T00:57:45;23.00;52.10
65826;DHT22;52586;-43.152;172.732;2023-03-16T01:00:18;23.10;52.10
65826;DHT22;52586;-43.152;172.732;2023-03-16T01:02:52;23.10;52.00
65826;DHT22;52586;-43.152;172.732;2023-03-16T01:05:22;23.20;51.90
65826;DHT22;52586;-43.152;172.732;2023-03-16T01:07:53;23.20;51.80
65826;DHT22;52586;-43.152;172.732;2023-03-16T01:10:24;23.20;51.80
65826;DHT22;52586;-43.152;172.732;2023-03-16T01:12:54;23.20;51.70
65826;DHT22;52586;-43.152;172.732;2023-03-16T01:15:27;23.30;51.70
65826;DHT22;52586;-43.152;172.732;2023-03-16T01:17:58;23.30;51.60
65826;DHT22;52586;-43.152;172.732;2023-03-16T01:20:28;23.30;51.50
65826;DHT22;52586;-43.152;172.732;2023-03-16T01:23:00;23.40;51.50
65826;DHT22;52586;-43.152;172.732;2023-03-16T01:25:31;23.40;51.40
65826;DHT22;52586;-43.152;172.732;2023-03-16T01:28:01;23.40;51.30
65826;DHT22;52586;-43.152;172.732;2023-03-16T01:30:34;23.40;51.30
65826;DHT22;52586;-43.152;172.732;2023-03-16T01:33:05;23.50;51.30
65826;DHT22;52586;-43.152;172.732;2023-03-16T01:35:35;23.50;51.40
65826;DHT22;52586;-43.152;172.732;2023-03-16T01:38:06;23.60;51.20
65826;DHT22;52586;-43.152;172.732;2023-03-16T01:40:37;23.60;51.20
65826;DHT22;52586;-43.152;172.732;2023-03-16T01:43:09;23.60;51.10
65826;DHT22;52586;-43.152;172.732;2023-03-16T01:46:08;23.70;51.20
65826;DHT22;52586;-43.152;172.732;2023-03-16T01:51:34;23.70;51.00
65826;DHT22;52586;-43.152;172.732;2023-03-16T01:54:09;23.70;51.00
65826;DHT22;52586;-43.152;172.732;2023-03-16T01:56:44;23.70;51.00
65826;DHT22;52586;-43.152;172.732;2023-03-16T01:59:19;23.80;50.80
65826;DHT22;52586;-43.152;172.732;2023-03-16T02:01:53;23.80;50.70
65826;DHT22;52586;-43.152;172.732;2023-03-16T02:04:38;23.80;50.60
65826;DHT22;52586;-43.152;172.732;2023-03-16T02:10:37;23.90;50.50
65826;DHT22;52586;-43.152;172.732;2023-03-16T02:13:08;24.00;50.50
65826;DHT22;52586;-43.152;172.732;2023-03-16T02:15:39;24.00;50.50
65826;DHT22;52586;-43.152;172.732;2023-03-16T02:18:11;24.00;50.60
65826;DHT22;52586;-43.152;172.732;2023-03-16T02:20:45;24.00;50.50
65826;DHT22;52586;-43.152;172.732;2023-03-16T02:23:19;24.10;50.50
65826;DHT22;52586;-43.152;172.732;2023-03-16T02:25:55;24.00;50.40
65826;DHT22;52586;-43.152;172.732;2023-03-16T02:28:32;24.10;50.40
65826;DHT22;52586;-43.152;172.732;2023-03-16T02:31:07;24.20;50.40
65826;DHT22;52586;-43.152;172.732;2023-03-16T02:33:38;24.20;50.30
65826;DHT22;52586;-43.152;172.732;2023-03-16T02:36:09;24.20;50.20
65826;DHT22;52586;-43.152;172.732;2023-03-16T02:38:42;24.20;50.00
65826;DHT22;52586;-43.152;172.732;2023-03-16T02:41:15;24.20;49.80
65826;DHT22;52586;-43.152;172.732;2023-03-16T02:43:49;24.20;49.60
65826;DHT22;52586;-43.152;172.732;2023-03-16T02:46:26;24.30;49.70
65826;DHT22;52586;-43.152;172.732;2023-03-16T02:49:05;24.30;49.50
65826;DHT22;52586;-43.152;172.732;2023-03-16T02:51:36;24.30;49.40
65826;DHT22;52586;-43.152;172.732;2023-03-16T02:54:07;24.30;49.40
65826;DHT22;52586;-43.152;172.732;2023-03-16T02:56:38;24.30;49.40
65826;DHT22;52586;-43.152;172.732;2023-03-16T02:59:08;24.40;49.40
65826;DHT22;52586;-43.152;172.732;2023-03-16T03:01:41;24.30;49.50
65826;DHT22;52586;-43.152;172.732;2023-03-16T03:04:12;24.40;49.30
65826;DHT22;52586;-43.152;172.732;2023-03-16T03:06:43;24.40;49.30
65826;DHT22;52586;-43.152;172.732;2023-03-16T03:09:13;24.40;49.30
65826;DHT22;52586;-43.152;172.732;2023-03-16T03:11:45;24.40;49.30
65826;DHT22;52586;-43.152;172.732;2023-03-16T03:14:15;24.40;49.40
65826;DHT22;52586;-43.152;172.732;2023-03-16T03:16:48;24.50;49.40
65826;DHT22;52586;-43.152;172.732;2023-03-16T03:19:19;24.50;49.20
65826;DHT22;52586;-43.152;172.732;2023-03-16T03:21:50;24.50;49.10
65826;DHT22;52586;-43.152;172.732;2023-03-16T03:24:24;24.50;49.00
65826;DHT22;52586;-43.152;172.732;2023-03-16T03:26:54;24.50;48.90
65826;DHT22;52586;-43.152;172.732;2023-03-16T03:29:25;24.50;48.90
65826;DHT22;52586;-43.152;172.732;2023-03-16T03:32:03;24.50;48.80
65826;DHT22;52586;-43.152;172.732;2023-03-16T03:34:34;24.50;48.80
65826;DHT22;52586;-43.152;172.732;2023-03-16T03:37:04;24.60;48.80
65826;DHT22;52586;-43.152;172.732;2023-03-16T03:39:35;24.60;48.90
65826;DHT22;52586;-43.152;172.732;2023-03-16T03:42:07;24.60;48.90
65826;DHT22;52586;-43.152;172.732;2023-03-16T03:44:38;24.60;48.90
65826;DHT22;52586;-43.152;172.732;2023-03-16T03:47:10;24.60;48.90
65826;DHT22;52586;-43.152;172.732;2023-03-16T03:49:41;24.60;48.90
65826;DHT22;52586;-43.152;172.732;2023-03-16T03:52:12;24.70;49.00
65826;DHT22;52586;-43.152;172.732;2023-03-16T03:54:42;24.60;48.90
65826;DHT22;52586;-43.152;172.732;2023-03-16T03:57:13;24.60;48.50
65826;DHT22;52586;-43.152;172.732;2023-03-16T03:59:44;24.70;48.50
65826;DHT22;52586;-43.152;172.732;2023-03-16T04:02:16;24.70;48.50
65826;DHT22;52586;-43.152;172.732;2023-03-16T04:04:47;24.70;48.40
65826;DHT22;52586;-43.152;172.732;2023-03-16T04:07:18;24.70;48.30
65826;DHT22;52586;-43.152;172.732;2023-03-16T04:09:49;24.70;48.30
65826;DHT22;52586;-43.152;172.732;2023-03-16T04:12:20;24.70;48.20
65826;DHT22;52586;-43.152;172.732;2023-03-16T04:14:50;24.70;48.20
65826;DHT22;52586;-43.152;172.732;2023-03-16T04:17:23;24.70;48.20
65826;DHT22;52586;-43.152;172.732;2023-03-16T04:19:54;24.70;48.20
65826;DHT22;52586;-43.152;172.732;2023-03-16T04:22:24;24.70;48.20
65826;DHT22;52586;-43.152;172.732;2023-03-16T04:24:57;24.80;48.30
65826;DHT22;52586;-43.152;172.732;2023-03-16T04:27:29;24.80;48.40
65826;DHT22;52586;-43.152;172.732;2023-03-16T04:30:03;24.80;48.40
65826;DHT22;52586;-43.152;172.732;2023-03-16T04:32:36;24.80;48.40
65826;DHT22;52586;-43.152;172.732;2023-03-16T04:35:07;24.80;48.40
65826;DHT22;52586;-43.152;172.732;2023-03-16T04:37:38;24.80;48.30
65826;DHT22;52586;-43.152;172.732;2023-03-16T04:40:09;24.80;48.40
65826;DHT22;52586;-43.152;172.732;2023-03-16T04:42:49;24.80;48.30
65826;DHT22;52586;-43.152;172.732;2023-03-16T04:45:20;24.80;48.10
65826;DHT22;52586;-43.152;172.732;2023-03-16T04:47:53;24.80;48.00
65826;DHT22;52586;-43.152;172.732;2023-03-16T04:50:24;24.80;48.00
65826;DHT22;52586;-43.152;172.732;2023-03-16T04:52:54;24.80;48.00
65826;DHT22;52586;-43.152;172.732;2023-03-16T04:55:25;24.80;48.00
65826;DHT22;52586;-43.152;172.732;2023-03-16T04:57:56;24.80;47.90
65826;DHT22;52586;-43.152;172.732;2023-03-16T05:00:26;24.90;48.10
65826;DHT22;52586;-43.152;172.732;2023-03-16T05:02:59;24.90;48.20
65826;DHT22;52586;-43.152;172.732;2023-03-16T05:05:30;24.90;48.20
65826;DHT22;52586;-43.152;172.732;2023-03-16T05:08:01;24.90;48.20
65826;DHT22;52586;-43.152;172.732;2023-03-16T05:10:33;24.90;48.30
65826;DHT22;52586;-43.152;172.732;2023-03-16T05:13:04;24.90;48.40
65826;DHT22;52586;-43.152;172.732;2023-03-16T05:15:34;24.90;48.40
65826;DHT22;52586;-43.152;172.732;2023-03-16T05:18:07;24.90;48.30
65826;DHT22;52586;-43.152;172.732;2023-03-16T05:20:38;24.90;48.30
65826;DHT22;52586;-43.152;172.732;2023-03-16T05:23:08;24.90;48.20
65826;DHT22;52586;-43.152;172.732;2023-03-16T05:25:39;24.90;48.10
65826;DHT22;52586;-43.152;172.732;2023-03-16T05:28:10;24.90;48.20
65826;DHT22;52586;-43.152;172.732;2023-03-16T05:30:41;24.90;48.20
65826;DHT22;52586;-43.152;172.732;2023-03-16T05:33:15;24.90;48.20
65826;DHT22;52586;-43.152;172.732;2023-03-16T05:35:45;24.90;48.00
65826;DHT22;52586;-43.152;172.732;2023-03-16T05:38:16;24.90;48.10
65826;DHT22;52586;-43.152;172.732;2023-03-16T05:40:47;24.90;48.10
65826;DHT22;52586;-43.152;172.732;2023-03-16T05:43:20;24.90;48.20
65826;DHT22;52586;-43.152;172.732;2023-03-16T05:45:50;24.90;48.30
65826;DHT22;52586;-43.152;172.732;2023-03-16T05:48:23;24.90;48.30
65826;DHT22;52586;-43.152;172.732;2023-03-16T05:50:54;24.90;48.40
65826;DHT22;52586;-43.152;172.732;2023-03-16T05:53:24;24.90;48.30
65826;DHT22;52586;-43.152;172.732;2023-03-16T05:55:55;24.90;48.40
65826;DHT22;52586;-43.152;172.732;2023-03-16T05:58:26;24.90;48.40
65826;DHT22;52586;-43.152;172.732;2023-03-16T06:00:59;24.90;48.40
65826;DHT22;52586;-43.152;172.732;2023-03-16T06:03:33;24.90;48.40
65826;DHT22;52586;-43.152;172.732;2023-03-16T06:06:04;24.90;48.40
65826;DHT22;52586;-43.152;172.732;2023-03-16T06:08:35;24.90;48.40
65826;DHT22;52586;-43.152;172.732;2023-03-16T06:11:06;24.90;48.40
65826;DHT22;52586;-43.152;172.732;2023-03-16T06:13:36;24.90;48.30
65826;DHT22;52586;-43.152;172.732;2023-03-16T06:16:07;24.90;48.30
65826;DHT22;52586;-43.152;172.732;2023-03-16T06:18:42;24.90;48.20
65826;DHT22;52586;-43.152;172.732;2023-03-16T06:21:13;24.90;48.20
65826;DHT22;52586;-43.152;172.732;2023-03-16T06:23:45;24.80;48.20
65826;DHT22;52586;-43.152;172.732;2023-03-16T06:26:15;24.90;48.30
65826;DHT22;52586;-43.152;172.732;2023-03-16T06:28:46;24.80;48.20
65826;DHT22;52586;-43.152;172.732;2023-03-16T06:31:17;24.80;48.20
65826;DHT22;52586;-43.152;172.732;2023-03-16T06:33:49;24.80;48.20
65826;DHT22;52586;-43.152;172.732;2023-03-16T06:36:20;24.80;48.20
65826;DHT22;52586;-43.152;172.732;2023-03-16T06:38:51;24.80;48.20
65826;DHT22;52586;-43.152;172.732;2023-03-16T06:41:22;24.80;48.20
65826;DHT22;52586;-43.152;172.732;2023-03-16T06:43:52;24.80;48.30
65826;DHT22;52586;-43.152;172.732;2023-03-16T06:46:23;24.80;48.30
65826;DHT22;52586;-43.152;172.732;2023-03-16T06:48:55;24.80;48.30
65826;DHT22;52586;-43.152;172.732;2023-03-16T06:51:27;24.80;48.30
65826;DHT22;52586;-43.152;172.732;2023-03-16T06:53:58;24.80;48.30
65826;DHT22;52586;-43.152;172.732;2023-03-16T06:56:29;24.70;48.30
65826;DHT22;52586;-43.152;172.732;2023-03-16T06:58:59;24.70;48.20
65826;DHT22;52586;-43.152;172.732;2023-03-16T07:01:30;24.80;48.30
65826;DHT22;52586;-43.152;172.732;2023-03-16T07:04:03;24.80;48.20
65826;DHT22;52586;-43.152;172.732;2023-03-16T07:06:36;24.80;48.30
65826;DHT22;52586;-43.152;172.732;2023-03-16T07:09:08;24.70;48.20
65826;DHT22;52586;-43.152;172.732;2023-03-16T07:11:39;24.70;48.20
65826;DHT22;52586;-43.152;172.732;2023-03-16T07:14:10;24.70;48.20
65826;DHT22;52586;-43.152;172.732;2023-03-16T07:16:40;24.70;48.20
65826;DHT22;52586;-43.152;172.732;2023-03-16T07:19:13;24.70;48.20
65826;DHT22;52586;-43.152;172.732;2023-03-16T07:21:44;24.70;48.20
65826;DHT22;52586;-43.152;172.732;2023-03-16T07:24:14;24.70;48.80
65826;DHT22;52586;-43.152;172.732;2023-03-16T07:26:45;24.70;48.30
65826;DHT22;52586;-43.152;172.732;2023-03-16T07:29:16;24.70;48.30
65826;DHT22;52586;-43.152;172.732;2023-03-16T07:31:46;24.70;48.30
65826;DHT22;52586;-43.152;172.732;2023-03-16T07:34:19;24.60;48.30
65826;DHT22;52586;-43.152;172.732;2023-03-16T07:36:50;24.70;48.30
65826;DHT22;52586;-43.152;172.732;2023-03-16T07:39:21;24.60;48.20
65826;DHT22;52586;-43.152;172.732;2023-03-16T07:41:52;24.60;48.20
65826;DHT22;52586;-43.152;172.732;2023-03-16T07:44:23;24.60;48.20
65826;DHT22;52586;-43.152;172.732;2023-03-16T07:46:54;24.60;48.20
65826;DHT22;52586;-43.152;172.732;2023-03-16T07:49:26;24.60;48.20
65826;DHT22;52586;-43.152;172.732;2023-03-16T07:51:57;24.60;48.10
65826;DHT22;52586;-43.152;172.732;2023-03-16T07:54:28;24.60;48.20
65826;DHT22;52586;-43.152;172.732;2023-03-16T07:56:58;24.50;48.10
65826;DHT22;52586;-43.152;172.732;2023-03-16T07:59:29;24.50;48.20
65826;DHT22;52586;-43.152;172.732;2023-03-16T08:02:00;24.50;48.20
65826;DHT22;52586;-43.152;172.732;2023-03-16T08:04:33;24.50;48.20
65826;DHT22;52586;-43.152;172.732;2023-03-16T08:07:03;24.50;48.20
65826;DHT22;52586;-43.152;172.732;2023-03-16T08:09:34;24.50;48.20
65826;DHT22;52586;-43.152;172.732;2023-03-16T08:12:06;24.50;48.20
65826;DHT22;52586;-43.152;172.732;2023-03-16T08:14:37;24.50;48.30
65826;DHT22;52586;-43.152;172.732;2023-03-16T08:17:07;24.50;48.30
65826;DHT22;52586;-43.152;172.732;2023-03-16T08:19:40;24.50;48.30
65826;DHT22;52586;-43.152;172.732;2023-03-16T08:22:11;24.50;48.30
65826;DHT22;52586;-43.152;172.732;2023-03-16T08:24:42;24.50;48.20
65826;DHT22;52586;-43.152;172.732;2023-03-16T08:27:13;24.50;48.20
65826;DHT22;52586;-43.152;172.732;2023-03-16T08:29:50;24.40;48.20
65826;DHT22;52586;-43.152;172.732;2023-03-16T08:32:20;24.40;48.40
65826;DHT22;52586;-43.152;172.732;2023-03-16T08:34:54;24.40;48.20
65826;DHT22;52586;-43.152;172.732;2023-03-16T08:37:25;24.40;48.30
65826;DHT22;52586;-43.152;172.732;2023-03-16T08:39:56;24.40;48.20
65826;DHT22;52586;-43.152;172.732;2023-03-16T08:42:27;24.40;48.30
65826;DHT22;52586;-43.152;172.732;2023-03-16T08:44:58;24.40;48.30
65826;DHT22;52586;-43.152;172.732;2023-03-16T08:47:36;24.40;48.30
65826;DHT22;52586;-43.152;172.732;2023-03-16T08:50:10;24.40;48.30
65826;DHT22;52586;-43.152;172.732;2023-03-16T08:52:42;24.30;48.30
65826;DHT22;52586;-43.152;172.732;2023-03-16T08:55:13;24.30;48.30
65826;DHT22;52586;-43.152;172.732;2023-03-16T08:57:43;24.30;48.30
65826;DHT22;52586;-43.152;172.732;2023-03-16T09:00:15;24.30;48.30
65826;DHT22;52586;-43.152;172.732;2023-03-16T09:02:47;24.30;48.30
65826;DHT22;52586;-43.152;172.732;2023-03-16T09:05:19;24.30;48.30
65826;DHT22;52586;-43.152;172.732;2023-03-16T09:07:51;24.30;48.30
65826;DHT22;52586;-43.152;172.732;2023-03-16T09:10:22;24.30;48.20
65826;DHT22;52586;-43.152;172.732;2023-03-16T09:12:54;24.30;48.20
65826;DHT22;52586;-43.152;172.732;2023-03-16T09:15:24;24.30;48.20
65826;DHT22;52586;-43.152;172.732;2023-03-16T09:17:55;24.30;48.30
65826;DHT22;52586;-43.152;172.732;2023-03-16T09:20:29;24.30;48.30
65826;DHT22;52586;-43.152;172.732;2023-03-16T09:23:00;24.20;48.30
65826;DHT22;52586;-43.152;172.732;2023-03-16T09:25:30;24.30;48.30
65826;DHT22;52586;-43.152;172.732;2023-03-16T09:28:01;24.20;48.40
65826;DHT22;52586;-43.152;172.732;2023-03-16T09:30:31;24.20;48.40
65826;DHT22;52586;-43.152;172.732;2023-03-16T09:33:02;24.20;48.40
65826;DHT22;52586;-43.152;172.732;2023-03-16T09:35:35;24.20;48.40
65826;DHT22;52586;-43.152;172.732;2023-03-16T09:38:05;24.20;48.40
65826;DHT22;52586;-43.152;172.732;2023-03-16T09:40:37;24.20;48.40
65826;DHT22;52586;-43.152;172.732;2023-03-16T09:43:23;24.20;48.40
65826;DHT22;52586;-43.152;172.732;2023-03-16T09:46:02;24.20;48.40
65826;DHT22;52586;-43.152;172.732;2023-03-16T09:48:36;24.20;48.30
65826;DHT22;52586;-43.152;172.732;2023-03-16T09:51:26;24.20;48.30
65826;DHT22;52586;-43.152;172.732;2023-03-16T09:54:02;24.20;48.30
65826;DHT22;52586;-43.152;172.732;2023-03-16T09:56:38;24.20;48.40
65826;DHT22;52586;-43.152;172.732;2023-03-16T09:59:11;24.20;48.20
65826;DHT22;52586;-43.152;172.732;2023-03-16T10:01:54;24.10;48.20
65826;DHT22;52586;-43.152;172.732;2023-03-16T10:04:36;24.10;48.30
65826;DHT22;52586;-43.152;172.732;2023-03-16T10:07:27;24.10;48.20
65826;DHT22;52586;-43.152;172.732;2023-03-16T10:10:04;24.10;48.30
65826;DHT22;52586;-43.152;172.732;2023-03-16T10:12:41;24.10;48.30
65826;DHT22;52586;-43.152;172.732;2023-03-16T10:15:17;24.10;48.30
65826;DHT22;52586;-43.152;172.732;2023-03-16T10:17:51;24.10;48.30
65826;DHT22;52586;-43.152;172.732;2023-03-16T10:20:24;24.10;48.40
65826;DHT22;52586;-43.152;172.732;2023-03-16T10:23:10;24.10;48.40
65826;DHT22;52586;-43.152;172.732;2023-03-16T10:25:46;24.10;48.30
65826;DHT22;52586;-43.152;172.732;2023-03-16T10:28:18;24.10;48.30
65826;DHT22;52586;-43.152;172.732;2023-03-16T10:30:50;24.10;48.30
65826;DHT22;52586;-43.152;172.732;2023-03-16T10:33:23;24.00;48.90
65826;DHT22;52586;-43.152;172.732;2023-03-16T10:35:59;24.00;48.30
65826;DHT22;52586;-43.152;172.732;2023-03-16T10:38:38;24.00;48.30
65826;DHT22;52586;-43.152;172.732;2023-03-16T10:41:20;24.00;48.30
65826;DHT22;52586;-43.152;172.732;2023-03-16T10:43:53;24.00;48.20
65826;DHT22;52586;-43.152;172.732;2023-03-16T10:46:25;24.00;48.30
65826;DHT22;52586;-43.152;172.732;2023-03-16T10:48:57;24.00;48.30
65826;DHT22;52586;-43.152;172.732;2023-03-16T10:51:29;24.00;48.30
65826;DHT22;52586;-43.152;172.732;2023-03-16T10:54:07;24.00;48.30
65826;DHT22;52586;-43.152;172.732;2023-03-16T10:56:42;24.00;48.40
65826;DHT22;52586;-43.152;172.732;2023-03-16T10:59:24;24.00;48.40
65826;DHT22;52586;-43.152;172.732;2023-03-16T11:01:56;24.00;48.40
65826;DHT22;52586;-43.152;172.732;2023-03-16T11:04:31;24.00;48.40
65826;DHT22;52586;-43.152;172.732;2023-03-16T11:07:02;24.00;48.40
65826;DHT22;52586;-43.152;172.732;2023-03-16T11:09:37;24.00;48.40
65826;DHT22;52586;-43.152;172.732;2023-03-16T11:12:20;24.00;48.40
65826;DHT22;52586;-43.152;172.732;2023-03-16T11:14:52;24.00;48.40
65826;DHT22;52586;-43.152;172.732;2023-03-16T11:17:29;23.90;48.40
65826;DHT22;52586;-43.152;172.732;2023-03-16T11:20:04;23.90;48.30
65826;DHT22;52586;-43.152;172.732;2023-03-16T11:22:41;23.90;48.30
65826;DHT22;52586;-43.152;172.732;2023-03-16T11:25:18;23.90;48.40
65826;DHT22;52586;-43.152;172.732;2023-03-16T11:27:55;23.90;48.40
65826;DHT22;52586;-43.152;172.732;2023-03-16T11:30:29;23.90;48.40
65826;DHT22;52586;-43.152;172.732;2023-03-16T11:33:08;23.90;48.40
65826;DHT22;52586;-43.152;172.732;2023-03-16T11:35:45;23.90;48.40
65826;DHT22;52586;-43.152;172.732;2023-03-16T11:38:19;23.90;48.50
65826;DHT22;52586;-43.152;172.732;2023-03-16T11:40:56;23.90;48.50
65826;DHT22;52586;-43.152;172.732;2023-03-16T11:43:42;23.90;48.50
65826;DHT22;52586;-43.152;172.732;2023-03-16T11:46:16;23.90;48.50
65826;DHT22;52586;-43.152;172.732;2023-03-16T11:48:58;23.90;48.50
65826;DHT22;52586;-43.152;172.732;2023-03-16T11:51:37;23.90;48.50
65826;DHT22;52586;-43.152;172.732;2023-03-16T11:54:32;23.90;49.10
65826;DHT22;52586;-43.152;172.732;2023-03-16T11:57:19;23.90;48.50
65826;DHT22;52586;-43.152;172.732;2023-03-16T12:00:09;23.80;48.50
65826;DHT22;52586;-43.152;172.732;2023-03-16T12:02:53;23.80;48.40
65826;DHT22;52586;-43.152;172.732;2023-03-16T12:05:45;23.80;48.40
65826;DHT22;52586;-43.152;172.732;2023-03-16T12:08:29;23.80;48.50
65826;DHT22;52586;-43.152;172.732;2023-03-16T12:11:03;23.80;48.50
65826;DHT22;52586;-43.152;172.732;2023-03-16T12:13:50;23.80;49.10
65826;DHT22;52586;-43.152;172.732;2023-03-16T12:16:27;23.80;48.60
65826;DHT22;52586;-43.152;172.732;2023-03-16T12:19:02;23.80;48.60
65826;DHT22;52586;-43.152;172.732;2023-03-16T12:21:37;23.80;48.60
65826;DHT22;52586;-43.152;172.732;2023-03-16T12:24:12;23.80;48.60
65826;DHT22;52586;-43.152;172.732;2023-03-16T12:26:50;23.80;48.70
65826;DHT22;52586;-43.152;172.732;2023-03-16T12:29:28;23.80;48.70
65826;DHT22;52586;-43.152;172.732;2023-03-16T12:32:06;23.80;48.70
65826;DHT22;52586;-43.152;172.732;2023-03-16T12:34:42;23.80;48.70
65826;DHT22;52586;-43.152;172.732;2023-03-16T12:37:19;23.80;48.60
65826;DHT22;52586;-43.152;172.732;2023-03-16T12:40:05;23.80;48.60
65826;DHT22;52586;-43.152;172.732;2023-03-16T12:42:50;23.80;48.60
65826;DHT22;52586;-43.152;172.732;2023-03-16T12:45:31;23.80;48.60
65826;DHT22;52586;-43.152;172.732;2023-03-16T12:48:13;23.80;48.60
65826;DHT22;52586;-43.152;172.732;2023-03-16T12:50:51;23.80;48.60
65826;DHT22;52586;-43.152;172.732;2023-03-16T12:53:41;23.80;48.70
65826;DHT22;52586;-43.152;172.732;2023-03-16T12:56:14;23.80;48.70
65826;DHT22;52586;-43.152;172.732;2023-03-16T12:58:46;23.80;48.70
65826;DHT22;52586;-43.152;172.732;2023-03-16T13:01:23;23.80;48.70
65826;DHT22;52586;-43.152;172.732;2023-03-16T13:04:01;23.70;48.70
65826;DHT22;52586;-43.152;172.732;2023-03-16T13:06:35;23.80;48.80
65826;DHT22;52586;-43.152;172.732;2023-03-16T13:09:07;23.80;48.80
65826;DHT22;52586;-43.152;172.732;2023-03-16T13:11:44;23.80;48.80
65826;DHT22;52586;-43.152;172.732;2023-03-16T13:14:36;23.70;48.70
65826;DHT22;52586;-43.152;172.732;2023-03-16T13:17:24;23.70;48.70
65826;DHT22;52586;-43.152;172.732;2023-03-16T13:20:23;23.70;48.70
65826;DHT22;52586;-43.152;172.732;2023-03-16T13:23:16;23.70;48.80
65826;DHT22;52586;-43.152;172.732;2023-03-16T13:26:02;23.70;48.70
65826;DHT22;52586;-43.152;172.732;2023-03-16T13:28:35;23.70;48.70
65826;DHT22;52586;-43.152;172.732;2023-03-16T13:31:18;23.70;48.70
65826;DHT22;52586;-43.152;172.732;2023-03-16T13:33:54;23.70;48.80
65826;DHT22;52586;-43.152;172.732;2023-03-16T13:36:28;23.70;48.90
65826;DHT22;52586;-43.152;172.732;2023-03-16T13:39:05;23.70;48.90
65826;DHT22;52586;-43.152;172.732;2023-03-16T13:41:40;23.70;48.90
65826;DHT22;52586;-43.152;172.732;2023-03-16T13:44:15;23.70;48.90
65826;DHT22;52586;-43.152;172.732;2023-03-16T13:46:48;23.70;48.90
65826;DHT22;52586;-43.152;172.732;2023-03-16T13:49:20;23.70;49.00
65826;DHT22;52586;-43.152;172.732;2023-03-16T13:51:51;23.70;49.10
65826;DHT22;52586;-43.152;172.732;2023-03-16T13:54:26;23.70;49.00
65826;DHT22;52586;-43.152;172.732;2023-03-16T13:56:58;23.70;49.00
65826;DHT22;52586;-43.152;172.732;2023-03-16T13:59:30;23.70;49.00
65826;DHT22;52586;-43.152;172.732;2023-03-16T14:02:01;23.70;49.00
65826;DHT22;52586;-43.152;172.732;2023-03-16T14:04:34;23.70;48.90
65826;DHT22;52586;-43.152;172.732;2023-03-16T14:07:05;23.70;49.00
65826;DHT22;52586;-43.152;172.732;2023-03-16T14:09:45;23.70;49.00
65826;DHT22;52586;-43.152;172.732;2023-03-16T14:12:17;23.70;49.00
65826;DHT22;52586;-43.152;172.732;2023-03-16T14:14:50;23.60;49.00
65826;DHT22;52586;-43.152;172.732;2023-03-16T14:17:24;23.60;49.00
65826;DHT22;52586;-43.152;172.732;2023-03-16T14:20:01;23.70;49.00
65826;DHT22;52586;-43.152;172.732;2023-03-16T14:22:33;23.60;49.10
65826;DHT22;52586;-43.152;172.732;2023-03-16T14:25:06;23.60;49.00
65826;DHT22;52586;-43.152;172.732;2023-03-16T14:27:44;23.60;49.10
65826;DHT22;52586;-43.152;172.732;2023-03-16T14:30:19;23.60;49.10
65826;DHT22;52586;-43.152;172.732;2023-03-16T14:32:57;23.70;49.10
65826;DHT22;52586;-43.152;172.732;2023-03-16T14:35:30;23.60;49.70
65826;DHT22;52586;-43.152;172.732;2023-03-16T14:38:19;23.70;49.10
65826;DHT22;52586;-43.152;172.732;2023-03-16T14:40:54;23.60;49.10
65826;DHT22;52586;-43.152;172.732;2023-03-16T14:43:29;23.60;49.10
65826;DHT22;52586;-43.152;172.732;2023-03-16T14:46:02;23.60;49.00
65826;DHT22;52586;-43.152;172.732;2023-03-16T14:48:34;23.60;49.10
65826;DHT22;52586;-43.152;172.732;2023-03-16T14:51:12;23.60;49.10
65826;DHT22;52586;-43.152;172.732;2023-03-16T14:53:43;23.60;49.10
65826;DHT22;52586;-43.152;172.732;2023-03-16T14:56:14;23.60;49.10
65826;DHT22;52586;-43.152;172.732;2023-03-16T14:58:45;23.60;49.10
65826;DHT22;52586;-43.152;172.732;2023-03-16T15:01:16;23.60;49.20
65826;DHT22;52586;-43.152;172.732;2023-03-16T15:03:47;23.60;49.20
65826;DHT22;52586;-43.152;172.732;2023-03-16T15:06:20;23.60;49.20
65826;DHT22;52586;-43.152;172.732;2023-03-16T15:08:53;23.60;49.20
65826;DHT22;52586;-43.152;172.732;2023-03-16T15:11:23;23.60;49.20
65826;DHT22;52586;-43.152;172.732;2023-03-16T15:13:55;23.60;49.20
65826;DHT22;52586;-43.152;172.732;2023-03-16T15:16:41;23.60;49.20
65826;DHT22;52586;-43.152;172.732;2023-03-16T15:19:11;23.60;49.30
65826;DHT22;52586;-43.152;172.732;2023-03-16T15:21:44;23.60;49.20
65826;DHT22;52586;-43.152;172.732;2023-03-16T15:24:14;23.60;49.20
65826;DHT22;52586;-43.152;172.732;2023-03-16T15:26:45;23.60;49.20
65826;DHT22;52586;-43.152;172.732;2023-03-16T15:29:16;23.60;49.30
65826;DHT22;52586;-43.152;172.732;2023-03-16T15:31:47;23.50;49.20
65826;DHT22;52586;-43.152;172.732;2023-03-16T15:34:17;23.50;49.20